KMGJ/MGJ METAR and TAF weather

Enter ICAO airport designator
Station Type Date Time Source
KMGJ METAR 2020/01/19 13:54 UTC NOAA

KMGJ 191354Z AUTO 19006KT 10SM FEW042 SCT050 OVC070 M03/M03 A2969 RMK AO2 SLP057 T10281028


Station Type Date Time Source
KMGJ Decoded METAR 2020/01/19 13:54 UTC NOAA

MONTGOMERY ORANGE CO AIRPORT, NY, United States (KMGJ) 41-31N 074-16W 108M
Jan 19, 2020 - 08:54 AM EST / 2020.01.19 1354 UTC
Wind: from the S (190 degrees) at 7 MPH (6 KT):0
Visibility: 10 mile(s):0
Sky conditions: overcast
Temperature: 27.0 F (-2.8 C)
Windchill: 19 F (-7 C):1
Dew Point: 27.0 F (-2.8 C)
Relative Humidity: 100%
Pressure (altimeter): 29.69 in. Hg (1005 hPa)
ob: KMGJ 191354Z AUTO 19006KT 10SM FEW042 SCT050 OVC070 M03/M03 A2969 RMK AO2 SLP057 T10281028
cycle: 14

Station Type Date Time Source
KMGJ TAF UTC NOAA

Error!

Example: see airport list